createdAt,value
2019-02-10T00:06:44.846Z,1.77
2019-02-10T00:09:26.085Z,1.57
2019-02-10T00:11:55.607Z,1.50
2019-02-10T00:14:25.025Z,1.50
2019-02-10T00:16:54.453Z,1.47
2019-02-10T00:19:23.924Z,1.60
2019-02-10T00:21:56.579Z,2.00
2019-02-10T00:24:26.015Z,1.30
2019-02-10T00:29:50.427Z,1.33
2019-02-10T00:32:39.143Z,1.73
2019-02-10T00:35:18.548Z,1.50
2019-02-10T00:37:48.241Z,1.40
2019-02-10T00:40:17.982Z,1.37
2019-02-10T00:42:48.720Z,1.60
2019-02-10T00:47:53.185Z,1.77
2019-02-10T00:50:22.732Z,2.30
2019-02-10T00:52:52.189Z,1.50
2019-02-10T01:00:54.607Z,1.20
2019-02-10T01:03:24.416Z,1.43
2019-02-10T01:05:53.822Z,1.37
2019-02-10T01:11:30.993Z,1.60
2019-02-10T01:14:24.205Z,1.70
2019-02-10T01:16:53.641Z,1.20
2019-02-10T01:19:23.343Z,1.37
2019-02-10T01:21:52.807Z,1.40
2019-02-10T01:24:22.293Z,1.20
2019-02-10T01:26:51.716Z,1.27
2019-02-10T01:29:21.293Z,1.20
2019-02-10T01:31:50.992Z,1.00
2019-02-10T01:34:20.454Z,1.27
2019-02-10T01:36:50.458Z,1.20
2019-02-10T01:39:38.985Z,1.20
2019-02-10T01:42:20.575Z,1.07
2019-02-10T01:55:29.192Z,1.00
2019-02-10T01:58:10.239Z,1.10
2019-02-10T02:00:42.917Z,1.70
2019-02-10T02:03:12.330Z,0.90
2019-02-10T02:06:21.041Z,1.03
2019-02-10T02:14:26.358Z,1.00
2019-02-10T02:17:07.194Z,1.13
2019-02-10T02:22:12.352Z,0.97
2019-02-10T02:24:42.142Z,1.00
2019-02-10T02:27:11.655Z,1.00
2019-02-10T02:29:41.102Z,1.10
2019-02-10T02:32:10.769Z,0.87
2019-02-10T02:34:40.268Z,1.20
2019-02-10T02:37:09.721Z,1.20
2019-02-10T02:39:39.273Z,1.60
2019-02-10T02:42:08.701Z,1.70
2019-02-10T02:47:38.533Z,1.60
2019-02-10T02:50:09.682Z,1.27
2019-02-10T02:52:39.262Z,1.63
2019-02-10T02:55:09.429Z,1.60
2019-02-10T02:57:38.838Z,1.60
2019-02-10T03:00:08.758Z,1.43
2019-02-10T03:02:38.901Z,2.27
2019-02-10T03:05:09.215Z,2.00
2019-02-10T03:07:38.805Z,2.30
2019-02-10T03:10:08.506Z,2.70
2019-02-10T03:12:37.985Z,2.43
2019-02-10T03:15:07.594Z,2.17
2019-02-10T03:17:38.174Z,2.97
2019-02-10T03:20:07.716Z,3.07
2019-02-10T03:22:37.194Z,3.40
2019-02-10T03:25:27.271Z,3.30
2019-02-10T03:27:57.114Z,3.10
2019-02-10T03:30:26.546Z,3.00
2019-02-10T03:32:59.624Z,3.40
2019-02-10T03:38:18.293Z,3.40
2019-02-10T03:40:35.970Z,2.70
2019-02-10T03:43:17.460Z,3.80
2019-02-10T03:45:47.112Z,4.03
2019-02-10T03:48:16.635Z,4.03
2019-02-10T03:50:46.142Z,3.37
2019-02-10T03:53:15.705Z,3.87
2019-02-10T03:55:49.136Z,3.80
2019-02-10T03:58:20.988Z,4.70
2019-02-10T04:00:50.581Z,3.77
2019-02-10T04:03:20.412Z,3.53
2019-02-10T04:05:50.368Z,4.50
2019-02-10T04:08:19.950Z,3.53
2019-02-10T04:10:49.453Z,4.00
2019-02-10T04:13:19.274Z,4.47
2019-02-10T04:15:48.821Z,3.83
2019-02-10T04:18:18.282Z,3.97
2019-02-10T04:20:48.502Z,4.33
2019-02-10T04:23:39.808Z,3.73
2019-02-10T04:28:55.920Z,3.80
2019-02-10T04:31:25.366Z,4.10
2019-02-10T04:33:54.900Z,4.60
2019-02-10T04:36:24.385Z,4.57
2019-02-10T04:38:53.836Z,4.53
2019-02-10T04:41:23.252Z,4.47
2019-02-10T04:44:03.681Z,4.47
2019-02-10T04:49:07.892Z,4.23
2019-02-10T04:51:37.392Z,3.80
2019-02-10T04:54:06.802Z,4.10
2019-02-10T04:59:11.435Z,4.57
2019-02-10T05:04:21.582Z,3.53
2019-02-10T05:06:51.609Z,3.73
2019-02-10T05:09:24.142Z,3.87
2019-02-10T05:11:53.768Z,3.63
2019-02-10T05:14:23.242Z,5.00
2019-02-10T05:16:52.757Z,3.50
2019-02-10T05:19:22.322Z,4.77
2019-02-10T05:21:51.746Z,4.30
2019-02-10T05:24:24.337Z,4.27
2019-02-10T05:26:53.810Z,4.20
2019-02-10T05:29:28.699Z,4.50
2019-02-10T05:31:58.182Z,3.90
2019-02-10T05:34:27.607Z,4.00
2019-02-10T05:36:57.033Z,4.00
2019-02-10T05:39:26.636Z,3.90
2019-02-10T05:42:15.227Z,4.17
2019-02-10T05:44:45.080Z,4.00
2019-02-10T05:47:14.507Z,4.23
2019-02-10T05:49:45.926Z,4.20
2019-02-10T05:52:15.572Z,4.10
2019-02-10T05:54:45.029Z,3.77
2019-02-10T05:57:14.566Z,4.40
2019-02-10T05:59:44.399Z,4.07
2019-02-10T06:02:36.944Z,4.13
2019-02-10T06:05:26.195Z,4.57
2019-02-10T06:08:13.404Z,3.60
2019-02-10T06:10:58.033Z,3.67
2019-02-10T06:13:27.499Z,4.33
2019-02-10T06:15:56.926Z,4.27
2019-02-10T06:18:26.485Z,3.70
2019-02-10T06:20:55.894Z,3.43
2019-02-10T06:23:25.341Z,4.30
2019-02-10T06:26:13.652Z,4.37
2019-02-10T06:28:43.223Z,3.77
2019-02-10T06:31:12.755Z,3.73
2019-02-10T06:33:42.242Z,4.13
2019-02-10T06:36:14.109Z,4.30
2019-02-10T06:41:23.113Z,5.97
2019-02-10T06:43:52.686Z,3.83
2019-02-10T06:46:33.558Z,3.70
2019-02-10T06:49:02.981Z,3.10
2019-02-10T06:51:32.426Z,4.27
2019-02-10T06:54:01.924Z,3.67
2019-02-10T06:56:35.020Z,5.03
2019-02-10T06:59:04.522Z,4.03
2019-02-10T07:04:36.240Z,3.30
2019-02-10T07:07:05.892Z,3.60
2019-02-10T07:09:46.322Z,4.17
2019-02-10T07:12:52.183Z,3.50
2019-02-10T07:16:17.281Z,3.63
2019-02-10T07:19:26.731Z,3.13
2019-02-10T07:21:56.215Z,3.57
2019-02-10T07:24:48.430Z,3.63
2019-02-10T07:27:36.951Z,4.10
2019-02-10T07:37:22.461Z,3.33
2019-02-10T07:40:29.984Z,4.43
2019-02-10T07:43:37.620Z,4.43
2019-02-10T07:46:19.184Z,4.10
2019-02-10T07:49:00.832Z,4.80
2019-02-10T07:51:57.152Z,4.13
2019-02-10T07:55:08.237Z,3.70
2019-02-10T07:57:48.784Z,3.37
2019-02-10T08:01:05.456Z,4.07
2019-02-10T08:06:51.073Z,3.67
2019-02-10T08:09:51.352Z,3.50
2019-02-10T08:12:58.710Z,4.10
2019-02-10T08:16:08.857Z,3.47
2019-02-10T08:19:17.072Z,3.13
2019-02-10T08:25:21.892Z,3.53
2019-02-10T08:28:32.314Z,3.30
2019-02-10T08:31:39.736Z,3.53
2019-02-10T08:34:34.790Z,3.27
2019-02-10T08:37:42.458Z,4.07
2019-02-10T08:40:49.810Z,3.50
2019-02-10T08:43:57.279Z,2.87
2019-02-10T08:47:08.975Z,4.07
2019-02-10T08:50:28.534Z,3.60
2019-02-10T08:53:28.008Z,3.57
2019-02-10T08:55:57.548Z,3.20
2019-02-10T08:58:27.006Z,3.27
2019-02-10T09:03:54.468Z,3.20
2019-02-10T09:06:23.921Z,2.97
2019-02-10T09:08:53.390Z,3.52
2019-02-10T09:11:22.908Z,4.12
2019-02-10T09:13:52.359Z,3.17
2019-02-10T09:16:21.819Z,3.67
2019-02-10T09:18:51.779Z,4.43
2019-02-10T09:21:21.612Z,3.53
2019-02-10T09:23:54.091Z,3.40
2019-02-10T09:26:35.272Z,3.20
2019-02-10T09:29:23.765Z,3.93
2019-02-10T09:31:53.342Z,4.27
2019-02-10T09:34:22.806Z,3.50
2019-02-10T09:36:52.290Z,3.93
2019-02-10T09:39:21.770Z,4.10
2019-02-10T09:41:51.472Z,3.10
2019-02-10T09:47:11.492Z,2.80
2019-02-10T09:49:41.097Z,3.33
2019-02-10T09:52:10.826Z,3.40
2019-02-10T09:54:40.839Z,3.90
2019-02-10T09:57:10.315Z,3.60
2019-02-10T09:59:39.753Z,3.50
2019-02-10T10:02:09.277Z,3.40
2019-02-10T10:04:38.733Z,3.57
2019-02-10T10:07:08.205Z,3.53
2019-02-10T10:09:46.549Z,2.67
2019-02-10T10:12:15.954Z,3.23
2019-02-10T10:14:45.461Z,3.10
2019-02-10T10:17:14.932Z,3.77
2019-02-10T10:19:56.646Z,3.60
2019-02-10T10:22:26.231Z,3.47
2019-02-10T10:24:55.775Z,3.73
2019-02-10T10:27:37.442Z,3.20
2019-02-10T10:33:02.105Z,3.63
2019-02-10T10:35:31.534Z,3.00
2019-02-10T10:38:00.975Z,3.50
2019-02-10T10:43:05.799Z,3.20
2019-02-10T10:45:35.299Z,4.07
2019-02-10T10:48:04.790Z,3.37
2019-02-10T10:50:34.234Z,3.70
2019-02-10T10:53:03.794Z,3.00
2019-02-10T10:55:33.262Z,2.67
2019-02-10T10:58:02.691Z,2.43
2019-02-10T11:03:07.120Z,2.97
2019-02-10T11:05:42.628Z,2.97
2019-02-10T11:08:12.210Z,3.53
2019-02-10T11:10:41.733Z,2.87
2019-02-10T11:13:11.330Z,3.70
2019-02-10T11:15:40.977Z,3.00
2019-02-10T11:18:10.442Z,3.00
2019-02-10T11:20:40.089Z,3.23
2019-02-10T11:23:09.584Z,3.53
2019-02-10T11:25:39.163Z,2.60
2019-02-10T11:28:09.682Z,2.80
2019-02-10T11:30:39.109Z,3.83
2019-02-10T11:33:08.585Z,2.93
2019-02-10T11:35:38.047Z,3.33
2019-02-10T11:38:07.498Z,2.77
2019-02-10T11:40:36.913Z,3.30
2019-02-10T11:43:20.479Z,3.03
2019-02-10T11:45:37.835Z,3.03
2019-02-10T11:48:07.935Z,3.17
2019-02-10T11:50:37.490Z,2.67
2019-02-10T11:53:06.952Z,2.67
2019-02-10T11:55:38.394Z,3.00
2019-02-10T12:00:43.063Z,3.33
2019-02-10T12:03:12.769Z,2.93
2019-02-10T12:05:43.144Z,4.03
2019-02-10T12:08:35.742Z,2.57
2019-02-10T12:11:03.231Z,2.73
2019-02-10T12:13:32.689Z,3.00
2019-02-10T12:16:02.280Z,3.00
2019-02-10T12:18:31.681Z,2.60
2019-02-10T12:21:01.155Z,2.77
2019-02-10T12:23:30.967Z,3.27
2019-02-10T12:26:00.534Z,2.43
2019-02-10T12:28:30.040Z,2.47
2019-02-10T12:31:00.106Z,2.87
2019-02-10T12:33:29.526Z,2.23
2019-02-10T12:35:59.037Z,2.00
2019-02-10T12:38:28.590Z,2.20
2019-02-10T12:40:58.038Z,2.27
2019-02-10T12:43:27.489Z,2.20
2019-02-10T12:46:02.800Z,3.20
2019-02-10T12:51:21.105Z,2.10
2019-02-10T12:53:50.685Z,2.70
2019-02-10T12:56:23.083Z,3.03
2019-02-10T12:58:52.640Z,2.30
2019-02-10T13:01:22.313Z,3.07
2019-02-10T13:03:51.729Z,2.30
2019-02-10T13:06:40.205Z,2.30
2019-02-10T13:12:01.689Z,2.43
2019-02-10T13:14:31.120Z,1.87
2019-02-10T13:17:05.568Z,2.17
2019-02-10T13:19:35.069Z,2.47
2019-02-10T13:22:04.541Z,2.63
2019-02-10T13:24:33.967Z,2.57
2019-02-10T13:27:29.625Z,2.67
2019-02-10T13:29:59.261Z,2.57
2019-02-10T13:32:28.702Z,2.53
2019-02-10T13:34:58.247Z,2.20
2019-02-10T13:37:27.692Z,2.63
2019-02-10T13:39:57.114Z,2.03
2019-02-10T13:42:26.797Z,2.30
2019-02-10T13:44:56.331Z,2.10
2019-02-10T13:50:35.255Z,2.33
2019-02-10T13:53:05.410Z,2.10
2019-02-10T13:55:34.811Z,2.60
2019-02-10T13:58:04.469Z,2.63
2019-02-10T14:00:33.941Z,2.73
2019-02-10T14:03:09.141Z,2.40
2019-02-10T14:05:38.606Z,2.20
2019-02-10T14:08:08.061Z,2.57
2019-02-10T14:10:37.516Z,2.93
2019-02-10T14:13:06.974Z,2.73
2019-02-10T14:15:36.419Z,2.13
2019-02-10T14:18:05.856Z,2.23
2019-02-10T14:20:35.315Z,2.77
2019-02-10T14:23:04.770Z,2.00
2019-02-10T14:25:34.254Z,2.90
2019-02-10T14:28:03.673Z,2.57
2019-02-10T14:30:33.106Z,2.63
2019-02-10T14:33:02.708Z,2.87
2019-02-10T14:35:32.153Z,2.57
2019-02-10T14:38:01.722Z,2.50
2019-02-10T14:40:33.798Z,2.60
2019-02-10T14:43:02.966Z,2.27
2019-02-10T14:45:32.388Z,2.10
2019-02-10T14:48:01.996Z,2.53
2019-02-10T14:50:31.420Z,2.10
2019-02-10T14:53:00.935Z,1.87
2019-02-10T14:55:42.282Z,2.47
2019-02-10T14:58:14.494Z,2.23
2019-02-10T15:00:44.157Z,1.73
2019-02-10T15:03:14.728Z,2.20
2019-02-10T15:05:44.305Z,1.90
2019-02-10T15:08:16.516Z,2.70
2019-02-10T15:11:05.011Z,2.30
2019-02-10T15:13:34.514Z,2.03
2019-02-10T15:16:22.454Z,2.57
2019-02-10T15:18:51.909Z,2.33
2019-02-10T15:21:21.616Z,3.07
2019-02-10T15:23:53.904Z,2.50
2019-02-10T15:26:23.333Z,2.50
2019-02-10T15:28:52.779Z,2.20
2019-02-10T15:31:22.265Z,3.27
2019-02-10T15:33:51.723Z,2.50
2019-02-10T15:36:35.392Z,2.13
2019-02-10T15:39:26.339Z,2.47
2019-02-10T15:42:09.470Z,2.50
2019-02-10T15:47:32.712Z,2.43
2019-02-10T15:50:03.782Z,2.57
2019-02-10T15:52:33.374Z,2.97
2019-02-10T15:57:37.464Z,2.77
2019-02-10T16:00:09.850Z,2.53
2019-02-10T16:02:39.278Z,2.87
2019-02-10T16:05:08.774Z,2.03
2019-02-10T16:10:13.642Z,2.73
2019-02-10T16:15:19.539Z,1.97
2019-02-10T16:17:49.383Z,2.27
2019-02-10T16:20:20.547Z,2.30
2019-02-10T16:22:53.074Z,2.70
2019-02-10T16:25:22.527Z,2.27
2019-02-10T16:27:54.275Z,3.03
2019-02-10T16:30:23.765Z,2.60
2019-02-10T16:32:53.288Z,3.03
2019-02-10T16:35:25.187Z,2.63
2019-02-10T16:40:29.183Z,2.70
2019-02-10T16:43:13.782Z,2.60
2019-02-10T16:45:43.307Z,2.90
2019-02-10T16:48:12.902Z,2.90
2019-02-10T16:50:42.362Z,2.50
2019-02-10T16:53:13.885Z,2.80
2019-02-10T16:55:43.387Z,3.27
2019-02-10T16:58:15.218Z,2.90
2019-02-10T17:00:44.654Z,2.87
2019-02-10T17:03:48.561Z,3.33
2019-02-10T17:09:13.142Z,3.50
2019-02-10T17:17:26.086Z,3.10
2019-02-10T17:19:55.550Z,3.20
2019-02-10T17:22:25.007Z,3.37
2019-02-10T17:24:54.538Z,3.50
2019-02-10T17:27:25.541Z,3.40
2019-02-10T17:29:55.079Z,3.73
2019-02-10T17:32:24.506Z,3.37
2019-02-10T17:34:53.971Z,3.77
2019-02-10T17:37:23.423Z,3.93
2019-02-10T17:39:52.844Z,4.93
2019-02-10T17:42:22.354Z,4.57
2019-02-10T17:44:51.923Z,4.00
2019-02-10T17:47:21.523Z,3.67
2019-02-10T17:49:53.264Z,4.10
2019-02-10T17:52:22.832Z,3.13
2019-02-10T17:54:52.323Z,3.80
2019-02-10T17:57:21.885Z,3.37
2019-02-10T17:59:53.838Z,3.17
2019-02-10T18:02:23.373Z,3.53
2019-02-10T18:04:52.902Z,3.53
2019-02-10T18:07:22.346Z,3.83
2019-02-10T18:09:56.598Z,3.07
2019-02-10T18:12:26.114Z,4.00
2019-02-10T18:15:14.541Z,3.37
2019-02-10T18:18:03.046Z,3.13
2019-02-10T18:20:51.495Z,3.77
2019-02-10T18:23:39.942Z,3.67
2019-02-10T18:26:28.211Z,4.20
2019-02-10T18:29:16.559Z,3.37
2019-02-10T18:31:52.747Z,2.90
2019-02-10T18:34:28.636Z,3.53
2019-02-10T18:37:17.356Z,3.23
2019-02-10T18:40:06.274Z,3.23
2019-02-10T18:42:54.612Z,3.40
2019-02-10T18:45:42.934Z,3.33
2019-02-10T18:48:31.258Z,3.50
2019-02-10T18:51:11.968Z,3.97
2019-02-10T18:54:00.330Z,4.03
2019-02-10T18:56:48.824Z,3.97
2019-02-10T18:59:37.272Z,3.93
2019-02-10T19:02:26.119Z,3.70
2019-02-10T19:05:07.009Z,3.80
2019-02-10T19:08:20.366Z,4.13
2019-02-10T19:11:07.415Z,4.57
2019-02-10T19:13:55.856Z,4.13
2019-02-10T19:16:44.194Z,3.93
2019-02-10T19:19:32.858Z,4.73
2019-02-10T19:22:21.227Z,3.97
2019-02-10T19:25:11.493Z,4.00
2019-02-10T19:28:01.810Z,4.17
2019-02-10T19:30:50.163Z,4.07
2019-02-10T19:33:33.268Z,3.67
2019-02-10T19:36:21.734Z,3.90
2019-02-10T19:39:10.858Z,4.13
2019-02-10T19:41:59.378Z,3.90
2019-02-10T19:47:28.963Z,4.00
2019-02-10T19:50:17.355Z,3.90
2019-02-10T19:53:06.224Z,3.77
2019-02-10T19:56:15.478Z,3.70
2019-02-10T19:59:06.988Z,4.60
2019-02-10T20:07:34.714Z,4.10
2019-02-10T20:10:27.485Z,3.77
2019-02-10T20:13:20.058Z,4.70
2019-02-10T20:16:09.804Z,4.43
2019-02-10T20:18:58.105Z,4.53
2019-02-10T20:21:46.429Z,4.30
2019-02-10T20:24:34.907Z,4.20
2019-02-10T20:30:19.878Z,3.93
2019-02-10T20:33:08.351Z,3.80
2019-02-10T20:35:56.746Z,4.37
2019-02-10T20:38:45.265Z,4.37
2019-02-10T20:41:33.693Z,5.07
2019-02-10T20:44:41.288Z,4.73
2019-02-10T20:47:29.720Z,4.67
2019-02-10T20:53:09.327Z,4.53
2019-02-10T20:55:46.265Z,5.07
2019-02-10T20:58:26.457Z,4.17
2019-02-10T21:01:15.893Z,4.70
2019-02-10T21:03:52.725Z,4.97
2019-02-10T21:06:33.141Z,5.70
2019-02-10T21:09:21.651Z,4.57
2019-02-10T21:12:20.333Z,4.80
2019-02-10T21:15:15.700Z,5.27
2019-02-10T21:18:04.022Z,6.10
2019-02-10T21:20:52.515Z,4.87
2019-02-10T21:23:41.246Z,5.03
2019-02-10T21:26:18.287Z,4.67
2019-02-10T21:29:06.581Z,5.73
2019-02-10T21:31:54.875Z,4.37
2019-02-10T21:34:43.529Z,4.80
2019-02-10T21:37:23.832Z,5.17
2019-02-10T21:40:40.141Z,4.83
2019-02-10T21:43:31.601Z,4.67
2019-02-10T21:46:20.218Z,4.57
2019-02-10T21:49:09.671Z,4.30
2019-02-10T21:51:39.123Z,5.00
2019-02-10T21:54:27.496Z,5.70
2019-02-10T21:56:57.079Z,4.67
2019-02-10T22:02:27.681Z,5.17
2019-02-10T22:04:57.091Z,5.87
2019-02-10T22:07:26.756Z,4.60
2019-02-10T22:09:56.228Z,4.57
2019-02-10T22:12:25.771Z,4.50
2019-02-10T22:17:43.837Z,5.63
2019-02-10T22:20:13.522Z,5.20
2019-02-10T22:23:02.028Z,4.83
2019-02-10T22:28:20.299Z,4.50
2019-02-10T22:30:51.458Z,4.50
2019-02-10T22:33:25.987Z,4.50
2019-02-10T22:35:53.130Z,4.47
2019-02-10T22:38:22.831Z,5.00
2019-02-10T22:41:11.380Z,4.27
2019-02-10T22:46:34.948Z,4.93
2019-02-10T22:49:04.381Z,4.37
2019-02-10T22:51:33.838Z,4.63
2019-02-10T22:56:38.051Z,4.60
2019-02-10T22:59:19.702Z,3.70
2019-02-10T23:01:56.852Z,5.40
2019-02-10T23:04:26.332Z,4.90
2019-02-10T23:06:55.737Z,4.10
2019-02-10T23:09:25.204Z,3.90
2019-02-10T23:11:54.694Z,4.73
2019-02-10T23:14:24.134Z,4.90
2019-02-10T23:17:12.602Z,4.53
2019-02-10T23:19:42.167Z,4.60
2019-02-10T23:22:11.768Z,5.00
2019-02-10T23:24:41.363Z,3.83
2019-02-10T23:27:10.761Z,4.03
2019-02-10T23:29:40.197Z,4.50
2019-02-10T23:32:09.637Z,4.80
2019-02-10T23:37:27.615Z,4.33
2019-02-10T23:39:57.080Z,3.97
2019-02-10T23:42:26.494Z,4.60
2019-02-10T23:44:55.993Z,4.27
2019-02-10T23:47:25.429Z,4.73
2019-02-10T23:50:04.101Z,4.40
2019-02-10T23:52:33.555Z,4.50
2019-02-10T23:55:03.204Z,4.27
2019-02-10T23:57:51.713Z,4.10
